createdAt,value
2023-01-31T00:00:10.997Z,75.63
2023-01-31T00:02:58.901Z,76.40
2023-01-31T00:05:27.106Z,83.25
2023-01-31T00:07:55.733Z,80.47
2023-01-31T00:10:23.998Z,83.80
2023-01-31T00:12:52.289Z,80.03
2023-01-31T00:15:20.852Z,87.22
2023-01-31T00:17:49.295Z,81.43
2023-01-31T00:20:19.127Z,80.07
2023-01-31T00:22:47.148Z,81.43
2023-01-31T00:25:15.545Z,84.55
2023-01-31T00:27:43.558Z,83.13
2023-01-31T00:30:13.326Z,76.15
2023-01-31T00:32:41.269Z,84.45
2023-01-31T00:35:09.825Z,80.22
2023-01-31T00:37:38.179Z,77.95
2023-01-31T00:40:07.170Z,82.47
2023-01-31T00:42:35.537Z,77.45
2023-01-31T00:45:05.801Z,74.70
2023-01-31T00:47:33.715Z,84.50
2023-01-31T00:50:02.667Z,74.85
2023-01-31T00:52:30.964Z,80.80
2023-01-31T00:54:58.964Z,90.40
2023-01-31T00:57:27.177Z,79.35
2023-01-31T00:59:55.289Z,87.38
2023-01-31T01:02:23.600Z,80.88
2023-01-31T01:04:52.297Z,85.55
2023-01-31T01:07:20.610Z,84.43
2023-01-31T01:09:48.593Z,80.38
2023-01-31T01:12:16.927Z,84.57
2023-01-31T01:14:44.977Z,81.03
2023-01-31T01:17:13.319Z,78.32
2023-01-31T01:19:41.416Z,80.53
2023-01-31T01:22:09.727Z,78.57
2023-01-31T01:24:37.726Z,73.78
2023-01-31T01:27:06.137Z,80.80
2023-01-31T01:29:34.297Z,74.97
2023-01-31T01:32:03.118Z,77.88
2023-01-31T01:34:31.746Z,83.85
2023-01-31T01:37:00.139Z,77.88
2023-01-31T01:39:30.543Z,79.22
2023-01-31T01:41:59.255Z,87.10
2023-01-31T01:44:54.628Z,81.13
2023-01-31T01:47:38.596Z,72.50
2023-01-31T01:50:12.388Z,70.47
2023-01-31T02:52:09.942Z,66.07
2023-01-31T02:54:59.439Z,63.85
2023-01-31T02:57:28.353Z,54.92
2023-01-31T02:59:57.170Z,59.15
2023-01-31T03:02:26.615Z,62.67
2023-01-31T03:04:55.058Z,58.40
2023-01-31T03:07:28.265Z,61.05
2023-01-31T03:10:05.586Z,55.92
2023-01-31T03:12:48.706Z,61.47
2023-01-31T03:15:25.891Z,57.55
2023-01-31T03:18:10.704Z,61.08
2023-01-31T03:20:50.256Z,68.28
2023-01-31T03:23:27.073Z,54.00
2023-01-31T03:26:00.544Z,73.25
2023-01-31T03:28:32.586Z,62.53
2023-01-31T03:31:22.133Z,67.97
2023-01-31T03:34:02.396Z,52.47
2023-01-31T03:37:28.063Z,58.53
2023-01-31T03:40:24.475Z,58.75
2023-01-31T03:43:25.614Z,54.72
2023-01-31T03:46:02.487Z,67.50
2023-01-31T03:48:36.128Z,63.15
2023-01-31T03:51:09.285Z,57.58
2023-01-31T03:53:48.965Z,70.00
2023-01-31T03:56:33.296Z,54.50
2023-01-31T03:59:08.623Z,64.15
2023-01-31T04:01:42.082Z,62.67
2023-01-31T04:04:13.208Z,65.60
2023-01-31T04:06:41.751Z,61.08
2023-01-31T04:09:11.163Z,64.22
2023-01-31T04:11:41.636Z,58.00
2023-01-31T04:14:11.436Z,59.70
2023-01-31T04:16:39.364Z,60.40
2023-01-31T04:19:07.633Z,65.25
2023-01-31T04:21:35.563Z,65.55
2023-01-31T04:24:05.282Z,61.90
2023-01-31T04:26:33.778Z,63.35
2023-01-31T04:29:04.183Z,58.10
2023-01-31T04:31:32.551Z,64.43
2023-01-31T04:34:00.985Z,64.70
2023-01-31T04:36:28.980Z,61.10
2023-01-31T04:38:57.261Z,62.53
2023-01-31T04:41:25.143Z,58.65
2023-01-31T04:43:53.510Z,64.20
2023-01-31T04:46:21.985Z,61.60
2023-01-31T04:48:50.214Z,55.42
2023-01-31T04:51:18.138Z,52.97
2023-01-31T04:53:46.466Z,58.33
2023-01-31T04:56:14.444Z,57.13
2023-01-31T04:58:43.692Z,61.80
2023-01-31T05:01:11.728Z,54.20
2023-01-31T05:03:40.356Z,77.40
2023-01-31T05:06:08.813Z,65.40
2023-01-31T05:08:37.024Z,63.30
2023-01-31T05:11:07.613Z,60.55
2023-01-31T05:13:40.987Z,54.78
2023-01-31T05:16:10.950Z,45.30
2023-01-31T05:18:40.573Z,58.80
2023-01-31T05:21:08.904Z,55.88
2023-01-31T05:23:37.215Z,70.40
2023-01-31T05:26:05.442Z,58.35
2023-01-31T05:28:34.936Z,63.47
2023-01-31T05:31:08.302Z,56.10
2023-01-31T05:36:05.352Z,61.28
2023-01-31T05:38:34.414Z,60.13
2023-01-31T05:41:02.424Z,48.58
2023-01-31T05:43:31.300Z,51.75
2023-01-31T05:45:59.470Z,49.50
2023-01-31T05:48:27.700Z,68.05
2023-01-31T05:50:55.558Z,52.70
2023-01-31T05:53:24.919Z,46.70
2023-01-31T05:55:53.604Z,57.22
2023-01-31T05:58:21.833Z,60.42
2023-01-31T06:00:49.778Z,52.25
2023-01-31T06:03:18.179Z,50.42
2023-01-31T06:05:46.145Z,57.88
2023-01-31T06:08:14.406Z,53.28
2023-01-31T06:10:42.355Z,59.20
2023-01-31T06:13:10.787Z,50.97
2023-01-31T06:15:45.825Z,126.53
2023-01-31T06:18:14.767Z,83.68
2023-01-31T06:20:42.734Z,67.85
2023-01-31T06:23:10.902Z,51.65
2023-01-31T06:25:38.795Z,53.58
2023-01-31T06:28:07.112Z,49.40
2023-01-31T06:30:35.867Z,60.55
2023-01-31T06:33:04.133Z,40.92
2023-01-31T06:35:34.024Z,57.75
2023-01-31T06:38:02.389Z,45.65
2023-01-31T06:40:31.026Z,48.88
2023-01-31T06:43:00.120Z,49.35
2023-01-31T06:45:28.905Z,54.53
2023-01-31T06:47:57.275Z,40.85
2023-01-31T06:50:25.275Z,44.33
2023-01-31T06:52:54.357Z,56.30
2023-01-31T06:55:22.813Z,45.53
2023-01-31T06:57:51.487Z,45.65
2023-01-31T07:00:19.905Z,49.13
2023-01-31T07:02:48.756Z,47.38
2023-01-31T07:05:16.876Z,45.72
2023-01-31T07:07:46.748Z,48.50
2023-01-31T07:10:14.785Z,48.47
2023-01-31T07:12:43.393Z,55.63
2023-01-31T07:15:11.685Z,46.72
2023-01-31T07:17:40.056Z,47.17
2023-01-31T07:20:10.926Z,45.50
2023-01-31T07:22:40.294Z,46.90
2023-01-31T07:25:08.712Z,52.65
2023-01-31T07:27:37.003Z,51.17
2023-01-31T07:30:05.409Z,68.05
2023-01-31T07:32:34.902Z,56.63
2023-01-31T07:35:02.876Z,46.35
2023-01-31T07:37:31.322Z,54.00
2023-01-31T07:39:59.267Z,50.15
2023-01-31T07:42:29.874Z,46.75
2023-01-31T07:45:07.004Z,46.00
2023-01-31T07:47:45.286Z,48.85
2023-01-31T07:50:13.266Z,43.53
2023-01-31T07:52:41.701Z,61.55
2023-01-31T07:55:09.846Z,38.60
2023-01-31T07:57:38.153Z,39.85
2023-01-31T08:00:26.740Z,34.10
2023-01-31T08:03:14.749Z,42.47
2023-01-31T08:05:46.604Z,40.92
2023-01-31T08:08:15.313Z,40.95
2023-01-31T08:10:43.316Z,38.08
2023-01-31T08:13:12.677Z,36.20
2023-01-31T08:15:40.656Z,48.47
2023-01-31T08:18:10.246Z,35.67
2023-01-31T08:20:38.166Z,37.92
2023-01-31T08:23:06.435Z,32.70
2023-01-31T08:25:34.405Z,41.28
2023-01-31T08:28:03.472Z,35.42
2023-01-31T08:30:31.707Z,39.10
2023-01-31T08:33:01.747Z,29.45
2023-01-31T08:35:30.275Z,47.08
2023-01-31T08:38:15.404Z,58.67
2023-01-31T08:40:44.198Z,51.20
2023-01-31T08:43:12.498Z,48.15
2023-01-31T08:45:40.535Z,45.28
2023-01-31T08:48:08.987Z,52.13
2023-01-31T08:50:37.587Z,42.53
2023-01-31T08:53:07.216Z,61.25
2023-01-31T08:55:36.623Z,41.40
2023-01-31T08:58:06.178Z,45.33
2023-01-31T09:00:34.356Z,48.42
2023-01-31T09:03:02.829Z,55.75
2023-01-31T09:05:32.636Z,55.60
2023-01-31T09:08:00.896Z,50.00
2023-01-31T09:10:28.912Z,58.83
2023-01-31T09:13:00.071Z,57.90
2023-01-31T09:15:28.677Z,56.60
2023-01-31T09:17:57.074Z,65.40
2023-01-31T09:20:25.008Z,62.85
2023-01-31T09:22:53.297Z,65.07
2023-01-31T09:25:33.497Z,69.85
2023-01-31T09:28:09.595Z,76.28
2023-01-31T09:30:37.883Z,67.65
2023-01-31T09:33:06.210Z,65.15
2023-01-31T09:35:34.265Z,74.03
2023-01-31T09:38:03.776Z,69.13
2023-01-31T09:40:36.619Z,78.65
2023-01-31T09:43:11.766Z,84.15
2023-01-31T09:45:44.095Z,103.63
2023-01-31T09:48:23.226Z,84.32
2023-01-31T09:50:56.551Z,88.78
2023-01-31T09:53:31.479Z,78.57
2023-01-31T09:56:19.037Z,67.35
2023-01-31T09:58:53.084Z,71.38
2023-01-31T10:04:22.424Z,67.93
2023-01-31T10:07:24.145Z,59.65
2023-01-31T10:10:00.712Z,54.33
2023-01-31T10:12:39.103Z,54.55
2023-01-31T10:15:17.497Z,50.42
2023-01-31T10:17:54.674Z,50.78
2023-01-31T10:20:36.300Z,45.38
2023-01-31T10:23:23.494Z,54.63
2023-01-31T10:25:58.477Z,49.50
2023-01-31T10:28:36.527Z,40.95
2023-01-31T10:31:11.583Z,45.78
2023-01-31T10:33:49.580Z,56.03
2023-01-31T10:36:39.892Z,57.15
2023-01-31T10:39:20.761Z,51.80
2023-01-31T10:42:13.320Z,61.10
2023-01-31T10:44:41.201Z,54.88
2023-01-31T10:47:16.090Z,52.75
2023-01-31T10:49:50.153Z,61.35
2023-01-31T10:52:58.310Z,52.28
2023-01-31T10:55:52.745Z,58.28
2023-01-31T10:58:22.711Z,43.03
2023-01-31T11:00:51.754Z,43.85
2023-01-31T11:03:20.278Z,42.40
2023-01-31T11:05:52.380Z,43.13
2023-01-31T11:08:20.595Z,53.05
2023-01-31T11:10:54.271Z,45.90
2023-01-31T11:13:23.747Z,46.45
2023-01-31T11:15:55.974Z,42.50
2023-01-31T11:18:49.500Z,50.50
2023-01-31T11:21:25.568Z,49.95
2023-01-31T11:24:18.559Z,44.60
2023-01-31T11:27:06.308Z,40.28
2023-01-31T11:29:51.519Z,41.80
2023-01-31T11:32:24.331Z,40.10
2023-01-31T11:35:04.530Z,37.17
2023-01-31T11:37:34.765Z,42.65
2023-01-31T11:40:20.090Z,51.83
2023-01-31T11:42:57.433Z,41.55
2023-01-31T11:45:37.725Z,45.15
2023-01-31T11:48:08.991Z,54.15
2023-01-31T11:50:39.815Z,51.08
2023-01-31T11:53:39.310Z,52.15
2023-01-31T11:56:17.106Z,62.58
2023-01-31T11:58:47.878Z,57.20
2023-01-31T12:01:26.884Z,52.50
2023-01-31T12:04:05.982Z,41.03
2023-01-31T12:06:40.305Z,49.80
2023-01-31T12:09:21.843Z,47.28
2023-01-31T12:12:25.339Z,35.38
2023-01-31T12:15:00.312Z,38.35
2023-01-31T12:17:36.770Z,33.75
2023-01-31T12:20:26.940Z,35.85
2023-01-31T12:23:14.803Z,39.20
2023-01-31T12:25:45.514Z,42.15
2023-01-31T12:28:49.932Z,47.05
2023-01-31T12:31:23.773Z,43.20
2023-01-31T12:34:02.261Z,45.55
2023-01-31T12:37:00.442Z,45.63
2023-01-31T12:40:24.797Z,39.72
2023-01-31T12:43:26.892Z,38.92
2023-01-31T12:46:10.037Z,33.83
2023-01-31T12:48:56.294Z,37.72
2023-01-31T12:51:54.813Z,45.65
2023-01-31T12:54:48.932Z,38.92
2023-01-31T12:57:52.843Z,41.55
2023-01-31T13:00:45.619Z,39.28
2023-01-31T13:03:16.956Z,39.33
2023-01-31T13:05:48.428Z,35.22
2023-01-31T13:08:22.197Z,46.53
2023-01-31T13:11:03.397Z,46.55
2023-01-31T13:13:58.216Z,37.55
2023-01-31T13:16:43.775Z,33.65
2023-01-31T13:19:20.231Z,37.25
2023-01-31T13:21:55.316Z,36.80
2023-01-31T13:24:29.913Z,39.45
2023-01-31T13:27:28.596Z,43.30
2023-01-31T13:30:02.619Z,41.67
2023-01-31T13:35:22.648Z,31.67
2023-01-31T13:37:56.295Z,35.88
2023-01-31T13:40:28.282Z,35.85
2023-01-31T13:43:00.832Z,36.92
2023-01-31T13:45:34.607Z,46.65
2023-01-31T13:48:02.489Z,49.70
2023-01-31T13:50:50.099Z,45.97
2023-01-31T13:53:26.499Z,50.80
2023-01-31T13:55:56.108Z,43.17
2023-01-31T13:58:28.995Z,47.25
2023-01-31T14:01:18.445Z,47.78
2023-01-31T14:04:15.128Z,42.10
2023-01-31T14:07:10.429Z,37.60
2023-01-31T14:09:42.710Z,45.58
2023-01-31T14:12:11.066Z,38.72
2023-01-31T14:14:45.210Z,43.55
2023-01-31T14:17:34.164Z,40.95
2023-01-31T14:20:21.983Z,51.20
2023-01-31T14:23:27.408Z,36.55
2023-01-31T14:25:55.282Z,40.15
2023-01-31T14:28:26.369Z,34.80
2023-01-31T14:30:56.004Z,35.42
2023-01-31T14:36:40.560Z,38.33
2023-01-31T14:39:11.350Z,42.72
2023-01-31T14:42:11.134Z,39.45
2023-01-31T14:44:41.823Z,43.63
2023-01-31T14:47:26.298Z,44.78
2023-01-31T14:50:22.056Z,61.03
2023-01-31T14:52:59.210Z,61.33
2023-01-31T14:55:55.204Z,52.47
2023-01-31T14:58:27.927Z,46.33
2023-01-31T15:01:03.133Z,42.92
2023-01-31T15:03:36.413Z,51.15
2023-01-31T15:06:16.213Z,43.72
2023-01-31T15:08:51.884Z,43.47
2023-01-31T15:11:41.102Z,42.35
2023-01-31T15:14:36.620Z,39.70
2023-01-31T15:17:35.690Z,51.47
2023-01-31T15:20:20.175Z,42.13
2023-01-31T15:22:49.699Z,41.42
2023-01-31T15:25:43.945Z,39.25
2023-01-31T15:30:52.799Z,43.58
2023-01-31T15:33:33.776Z,44.15
2023-01-31T15:36:37.747Z,46.05
2023-01-31T15:39:23.845Z,39.63
2023-01-31T15:41:52.599Z,42.67
2023-01-31T15:44:23.474Z,46.80
2023-01-31T15:46:58.319Z,43.88
2023-01-31T15:49:40.317Z,53.72
2023-01-31T15:52:17.010Z,46.85
2023-01-31T15:54:57.666Z,52.80
2023-01-31T15:57:41.737Z,51.10
2023-01-31T16:00:23.466Z,55.67
2023-01-31T16:03:00.904Z,55.30
2023-01-31T16:05:34.626Z,56.85
2023-01-31T16:08:35.808Z,57.92
2023-01-31T16:11:06.826Z,59.42
2023-01-31T16:13:39.136Z,63.67
2023-01-31T16:16:14.780Z,59.55
2023-01-31T16:18:51.858Z,55.85
2023-01-31T16:21:35.305Z,64.30
2023-01-31T16:24:18.539Z,65.78
2023-01-31T16:27:00.239Z,69.07
2023-01-31T16:29:47.491Z,62.35
2023-01-31T16:32:17.395Z,68.75
2023-01-31T16:34:53.809Z,63.13
2023-01-31T16:37:37.248Z,72.47
2023-01-31T16:40:17.702Z,76.30
2023-01-31T16:42:46.810Z,84.22
2023-01-31T16:45:29.517Z,74.18
2023-01-31T16:48:20.861Z,75.85
2023-01-31T16:50:51.134Z,87.38
2023-01-31T16:53:22.157Z,79.88
2023-01-31T16:56:15.537Z,71.88
2023-01-31T16:58:56.682Z,76.55
2023-01-31T17:01:29.948Z,71.20
2023-01-31T17:04:16.229Z,68.07
2023-01-31T17:06:50.905Z,69.50
2023-01-31T17:09:23.256Z,69.43
2023-01-31T17:11:54.795Z,67.53
2023-01-31T17:14:23.786Z,67.72
2023-01-31T17:16:54.253Z,66.47
2023-01-31T17:19:22.592Z,77.20
2023-01-31T17:21:51.564Z,72.53
2023-01-31T17:24:23.044Z,68.55
2023-01-31T17:26:53.751Z,76.50
2023-01-31T17:29:23.664Z,64.70
2023-01-31T17:31:52.527Z,85.35
2023-01-31T17:34:21.331Z,73.88
2023-01-31T17:36:49.901Z,86.15
2023-01-31T17:39:18.203Z,81.13
2023-01-31T17:41:47.284Z,76.57
2023-01-31T17:44:15.716Z,98.47
2023-01-31T17:46:44.785Z,75.88
2023-01-31T17:49:13.489Z,71.38
2023-01-31T17:51:43.165Z,83.78
2023-01-31T17:54:11.821Z,79.55
2023-01-31T17:56:40.606Z,88.63
2023-01-31T17:59:18.330Z,82.72
2023-01-31T18:01:54.165Z,88.53
2023-01-31T18:04:22.447Z,91.72
2023-01-31T18:06:52.291Z,96.70
2023-01-31T18:09:21.278Z,107.95
2023-01-31T18:11:49.943Z,88.75
2023-01-31T18:14:18.974Z,93.85
2023-01-31T18:16:50.970Z,118.82
2023-01-31T18:19:19.185Z,102.60
2023-01-31T18:21:54.965Z,85.15
2023-01-31T18:24:23.815Z,81.38
2023-01-31T18:26:53.095Z,92.07
2023-01-31T18:29:23.392Z,86.13
2023-01-31T18:31:58.161Z,89.97
2023-01-31T18:34:26.563Z,107.60
2023-01-31T18:36:56.133Z,87.68
2023-01-31T18:39:25.193Z,87.85
2023-01-31T18:41:53.994Z,97.38
2023-01-31T18:44:22.253Z,86.85
2023-01-31T18:46:51.934Z,89.78
2023-01-31T18:49:20.423Z,92.68
2023-01-31T18:51:49.998Z,114.40
2023-01-31T18:54:19.474Z,105.45
2023-01-31T18:56:48.238Z,93.63
2023-01-31T18:59:16.315Z,98.55
2023-01-31T19:01:44.806Z,105.00
2023-01-31T19:04:12.888Z,97.03
2023-01-31T19:06:41.313Z,101.60
2023-01-31T19:09:09.939Z,116.60
2023-01-31T19:11:43.589Z,120.75
2023-01-31T19:14:15.262Z,97.47
2023-01-31T19:16:45.082Z,99.65
2023-01-31T19:19:13.199Z,119.78
2023-01-31T19:21:41.619Z,94.65
2023-01-31T19:24:12.886Z,105.97
2023-01-31T19:26:42.458Z,108.78
2023-01-31T19:29:15.058Z,105.85
2023-01-31T19:31:43.874Z,99.75
2023-01-31T19:34:11.837Z,95.18
2023-01-31T19:36:41.632Z,104.22
2023-01-31T19:39:12.741Z,96.38
2023-01-31T19:41:42.804Z,96.57
2023-01-31T19:44:11.228Z,99.70
2023-01-31T19:46:39.485Z,100.47
2023-01-31T19:49:07.515Z,94.47
2023-01-31T19:51:35.993Z,130.20
2023-01-31T19:54:04.197Z,101.18
2023-01-31T19:56:33.112Z,91.97
2023-01-31T19:59:01.368Z,103.22
2023-01-31T20:01:29.846Z,104.22
2023-01-31T20:03:58.201Z,112.78
2023-01-31T20:06:29.300Z,93.55
2023-01-31T20:09:00.113Z,97.88
2023-01-31T20:11:29.608Z,95.25
2023-01-31T20:13:58.229Z,88.53
2023-01-31T20:16:27.022Z,100.32
2023-01-31T20:18:56.388Z,98.72
2023-01-31T20:21:25.274Z,109.10
2023-01-31T20:23:53.186Z,87.53
2023-01-31T20:26:24.583Z,101.75
2023-01-31T20:28:52.632Z,105.90
2023-01-31T20:31:22.081Z,100.60
2023-01-31T20:33:54.951Z,105.43
2023-01-31T20:36:23.933Z,94.22
2023-01-31T20:38:52.045Z,103.78
2023-01-31T20:41:21.977Z,92.93
2023-01-31T20:43:50.763Z,95.75
2023-01-31T20:46:19.630Z,105.30
2023-01-31T20:48:48.005Z,98.78
2023-01-31T20:51:16.434Z,90.43
2023-01-31T20:53:44.364Z,103.88
2023-01-31T20:56:12.697Z,90.53
2023-01-31T20:58:42.512Z,100.40
2023-01-31T21:01:12.526Z,116.70
2023-01-31T21:03:40.725Z,105.47
2023-01-31T21:06:09.668Z,113.18
2023-01-31T21:08:37.696Z,109.45
2023-01-31T21:11:08.850Z,98.20
2023-01-31T21:13:36.974Z,99.82
2023-01-31T21:16:08.155Z,95.75
2023-01-31T21:18:39.009Z,82.60
2023-01-31T21:21:09.890Z,88.53
2023-01-31T21:23:39.803Z,90.85
2023-01-31T21:26:10.407Z,95.40
2023-01-31T21:28:40.171Z,85.43
2023-01-31T21:31:18.274Z,90.60
2023-01-31T21:33:48.302Z,93.10
2023-01-31T21:36:19.430Z,98.40
2023-01-31T21:38:47.587Z,116.75
2023-01-31T21:41:36.431Z,119.60
2023-01-31T21:44:04.774Z,99.80
2023-01-31T21:46:33.268Z,100.13
2023-01-31T21:49:01.695Z,98.85
2023-01-31T21:51:30.105Z,97.93
2023-01-31T21:53:58.059Z,101.53
2023-01-31T21:56:28.557Z,95.13
2023-01-31T21:58:57.650Z,95.47
2023-01-31T22:01:32.480Z,88.97
2023-01-31T22:04:01.164Z,91.82
2023-01-31T22:06:35.273Z,96.30
2023-01-31T22:11:35.661Z,104.88
2023-01-31T22:14:09.153Z,94.40
2023-01-31T22:19:05.362Z,95.03
2023-01-31T22:21:36.287Z,90.60
2023-01-31T22:24:06.896Z,107.07
2023-01-31T22:26:43.488Z,93.55
2023-01-31T22:29:13.579Z,97.43
2023-01-31T22:31:42.789Z,87.78
2023-01-31T22:34:15.250Z,84.90
2023-01-31T22:39:13.504Z,95.03
2023-01-31T22:41:44.852Z,84.20
2023-01-31T22:44:12.805Z,80.20
2023-01-31T22:46:43.646Z,85.35
2023-01-31T22:49:11.502Z,86.03
2023-01-31T22:51:39.744Z,84.03
2023-01-31T22:54:08.613Z,87.80
2023-01-31T22:56:36.825Z,95.72
2023-01-31T22:59:06.270Z,81.82
2023-01-31T23:01:37.385Z,90.72
2023-01-31T23:04:08.018Z,87.68
2023-01-31T23:06:37.765Z,95.25
2023-01-31T23:09:05.805Z,83.22
2023-01-31T23:11:34.173Z,86.18
2023-01-31T23:14:03.232Z,89.63
2023-01-31T23:16:50.111Z,83.10
2023-01-31T23:19:18.336Z,89.05
2023-01-31T23:21:49.155Z,82.32
2023-01-31T23:24:17.123Z,77.82
2023-01-31T23:26:46.435Z,81.82
2023-01-31T23:29:14.437Z,79.85
2023-01-31T23:31:43.768Z,81.28
2023-01-31T23:34:11.719Z,76.78
2023-01-31T23:36:39.877Z,78.07
2023-01-31T23:39:07.719Z,82.72
2023-01-31T23:41:35.937Z,85.05
2023-01-31T23:44:04.200Z,82.28
2023-01-31T23:46:33.553Z,86.10
2023-01-31T23:49:02.193Z,79.40
2023-01-31T23:51:34.015Z,84.00
2023-01-31T23:54:02.062Z,82.57
2023-01-31T23:56:30.455Z,116.43
2023-01-31T23:58:58.347Z,85.13
